Accueil
METAR-TAF:

METAR-TAF

Aéroports :

Aéroport de Sion

Sion, Suisse

latitude: 46-13N, longitude: 007-20E, altitude: 482 m

Observation

Le bulletin a été fait il y a 24 minutes, à 20:50 UTC
Vent 2 kt de direction variable
Température 24°C
Humidité 50%
Pression 1015 hPa
Visibilité 10 km ou plus
pas de nuages en-dessous de 1500 mètres et pas de cumulonimbus.

METAR: LSGS 162050Z AUTO VRB02KT CAVOK 24/13 Q1015

Heure: 23:14 (21:14 UTC)

Prévision

Le bulletin a été fait il y a 6 heures et 49 minutes, à 14:25 UTC
Prévision valable du 16 à 15 UTC au 16 à 24 UTC
Vent 10 kt de ouest/sud-ouest
Visibilité 10 km ou plus
Quelques nuages à une hauteur de 9000 ft
Evoluant progressivement
du 16 à 16 UTC au 16 à 18 UTC
Vent 3 kt de direction variable
Visibilité 10 km ou plus
pas de nuages en-dessous de 1500 mètres et pas de cumulonimbus.

TAF: LSGS 161425Z 1615/1624 25010KT 9999 FEW090 BECMG 1616/1618 VRB03KT CAVOK

Observations et prévisions météorologiques de plus de 4000 aéroports (messages METAR et TAF).

Les stations disponibles sont représentées par des disques jaunes et rouges sur la carte.

Passer la souris dessus pour voir le nom de la station.

Cliquer dessus pour voir les observations et prévisions météorologiques.

Pour changer de carte: cliquez sur les boutons verts avec une croix noire pour zoomer, sur le bouton vert avec un tiret pour effectuer un zoom arrière, ou sur les flèches vertes pour les cartes adjacentes.


METAR-TAF: